sensor_id;sensor_type;location;lat;lon;timestamp;P1;durP1;ratioP1;P2;durP2;ratioP2
22780;SDS011;11557;50.884;4.322;2023-04-03T00:00:31;9.95;;;7.53;;
22780;SDS011;11557;50.884;4.322;2023-04-03T00:02:57;9.75;;;7.72;;
22780;SDS011;11557;50.884;4.322;2023-04-03T00:05:23;10.85;;;7.60;;
22780;SDS011;11557;50.884;4.322;2023-04-03T00:07:49;11.68;;;7.20;;
22780;SDS011;11557;50.884;4.322;2023-04-03T00:10:15;13.35;;;8.27;;
22780;SDS011;11557;50.884;4.322;2023-04-03T00:12:40;10.70;;;8.00;;
22780;SDS011;11557;50.884;4.322;2023-04-03T00:15:06;11.27;;;8.02;;
22780;SDS011;11557;50.884;4.322;2023-04-03T00:17:34;13.07;;;8.88;;
22780;SDS011;11557;50.884;4.322;2023-04-03T00:20:00;11.35;;;8.00;;
22780;SDS011;11557;50.884;4.322;2023-04-03T00:22:26;10.68;;;8.35;;
22780;SDS011;11557;50.884;4.322;2023-04-03T00:24:53;9.43;;;7.72;;
22780;SDS011;11557;50.884;4.322;2023-04-03T00:27:19;12.35;;;8.40;;
22780;SDS011;11557;50.884;4.322;2023-04-03T00:29:45;9.20;;;7.60;;
22780;SDS011;11557;50.884;4.322;2023-04-03T00:32:10;12.52;;;7.60;;
22780;SDS011;11557;50.884;4.322;2023-04-03T00:34:36;13.50;;;7.82;;
22780;SDS011;11557;50.884;4.322;2023-04-03T00:37:02;11.23;;;8.02;;
22780;SDS011;11557;50.884;4.322;2023-04-03T00:39:27;11.50;;;8.00;;
22780;SDS011;11557;50.884;4.322;2023-04-03T00:41:53;11.88;;;8.32;;
22780;SDS011;11557;50.884;4.322;2023-04-03T00:44:20;16.80;;;9.07;;
22780;SDS011;11557;50.884;4.322;2023-04-03T00:46:57;12.52;;;8.48;;
22780;SDS011;11557;50.884;4.322;2023-04-03T00:49:23;12.50;;;8.68;;
22780;SDS011;11557;50.884;4.322;2023-04-03T00:51:49;12.77;;;7.97;;
22780;SDS011;11557;50.884;4.322;2023-04-03T00:54:14;12.25;;;8.27;;
22780;SDS011;11557;50.884;4.322;2023-04-03T00:56:40;10.82;;;8.27;;
22780;SDS011;11557;50.884;4.322;2023-04-03T00:59:08;11.13;;;8.65;;
22780;SDS011;11557;50.884;4.322;2023-04-03T01:01:37;11.13;;;8.40;;
22780;SDS011;11557;50.884;4.322;2023-04-03T01:04:03;15.70;;;7.53;;
22780;SDS011;11557;50.884;4.322;2023-04-03T01:06:32;9.68;;;7.50;;
22780;SDS011;11557;50.884;4.322;2023-04-03T01:09:01;11.60;;;8.38;;
22780;SDS011;11557;50.884;4.322;2023-04-03T01:11:27;10.85;;;7.78;;
22780;SDS011;11557;50.884;4.322;2023-04-03T01:13:53;11.98;;;8.27;;
22780;SDS011;11557;50.884;4.322;2023-04-03T01:16:19;10.70;;;7.57;;
22780;SDS011;11557;50.884;4.322;2023-04-03T01:18:44;9.98;;;7.57;;
22780;SDS011;11557;50.884;4.322;2023-04-03T01:24:58;9.20;;;7.10;;
22780;SDS011;11557;50.884;4.322;2023-04-03T01:27:05;10.57;;;7.32;;
22780;SDS011;11557;50.884;4.322;2023-04-03T01:29:33;14.18;;;7.75;;
22780;SDS011;11557;50.884;4.322;2023-04-03T01:31:59;13.82;;;7.65;;
22780;SDS011;11557;50.884;4.322;2023-04-03T01:34:27;9.32;;;7.03;;
22780;SDS011;11557;50.884;4.322;2023-04-03T01:36:53;11.10;;;7.68;;
22780;SDS011;11557;50.884;4.322;2023-04-03T01:39:19;10.60;;;7.85;;
22780;SDS011;11557;50.884;4.322;2023-04-03T01:41:45;12.48;;;7.72;;
22780;SDS011;11557;50.884;4.322;2023-04-03T01:44:11;11.38;;;7.85;;
22780;SDS011;11557;50.884;4.322;2023-04-03T01:46:37;13.18;;;7.95;;
22780;SDS011;11557;50.884;4.322;2023-04-03T01:49:03;11.90;;;8.35;;
22780;SDS011;11557;50.884;4.322;2023-04-03T01:51:29;12.82;;;7.43;;
22780;SDS011;11557;50.884;4.322;2023-04-03T01:53:55;9.43;;;7.55;;
22780;SDS011;11557;50.884;4.322;2023-04-03T01:56:21;10.05;;;7.45;;
22780;SDS011;11557;50.884;4.322;2023-04-03T01:58:47;9.65;;;7.55;;
22780;SDS011;11557;50.884;4.322;2023-04-03T02:01:13;11.63;;;7.68;;
22780;SDS011;11557;50.884;4.322;2023-04-03T02:03:39;14.50;;;7.78;;
22780;SDS011;11557;50.884;4.322;2023-04-03T02:06:05;13.45;;;7.32;;
22780;SDS011;11557;50.884;4.322;2023-04-03T02:08:34;9.40;;;6.97;;
22780;SDS011;11557;50.884;4.322;2023-04-03T02:11:00;12.15;;;7.47;;
22780;SDS011;11557;50.884;4.322;2023-04-03T02:13:26;10.10;;;7.80;;
22780;SDS011;11557;50.884;4.322;2023-04-03T02:15:51;9.18;;;6.85;;
22780;SDS011;11557;50.884;4.322;2023-04-03T02:18:17;9.55;;;7.25;;
22780;SDS011;11557;50.884;4.322;2023-04-03T02:20:43;10.98;;;7.35;;
22780;SDS011;11557;50.884;4.322;2023-04-03T02:23:09;9.07;;;7.15;;
22780;SDS011;11557;50.884;4.322;2023-04-03T02:25:35;9.30;;;7.13;;
22780;SDS011;11557;50.884;4.322;2023-04-03T02:28:00;9.07;;;7.15;;
22780;SDS011;11557;50.884;4.322;2023-04-03T02:30:26;9.90;;;6.50;;
22780;SDS011;11557;50.884;4.322;2023-04-03T02:32:52;11.23;;;7.60;;
22780;SDS011;11557;50.884;4.322;2023-04-03T02:35:17;10.98;;;7.55;;
22780;SDS011;11557;50.884;4.322;2023-04-03T02:37:43;9.30;;;7.20;;
22780;SDS011;11557;50.884;4.322;2023-04-03T02:40:08;10.35;;;7.10;;
22780;SDS011;11557;50.884;4.322;2023-04-03T02:42:36;13.45;;;6.97;;
22780;SDS011;11557;50.884;4.322;2023-04-03T02:45:02;10.60;;;7.35;;
22780;SDS011;11557;50.884;4.322;2023-04-03T02:47:28;8.90;;;6.85;;
22780;SDS011;11557;50.884;4.322;2023-04-03T02:49:53;12.70;;;7.65;;
22780;SDS011;11557;50.884;4.322;2023-04-03T02:52:19;10.00;;;7.72;;
22780;SDS011;11557;50.884;4.322;2023-04-03T02:54:46;9.77;;;7.47;;
22780;SDS011;11557;50.884;4.322;2023-04-03T02:57:11;9.30;;;7.00;;
22780;SDS011;11557;50.884;4.322;2023-04-03T02:59:37;10.50;;;7.95;;
22780;SDS011;11557;50.884;4.322;2023-04-03T03:02:06;9.77;;;7.15;;
22780;SDS011;11557;50.884;4.322;2023-04-03T03:04:33;9.48;;;7.45;;
22780;SDS011;11557;50.884;4.322;2023-04-03T03:06:58;11.70;;;7.57;;
22780;SDS011;11557;50.884;4.322;2023-04-03T03:09:24;10.60;;;7.25;;
22780;SDS011;11557;50.884;4.322;2023-04-03T03:11:51;9.88;;;7.88;;
22780;SDS011;11557;50.884;4.322;2023-04-03T03:14:17;10.73;;;7.18;;
22780;SDS011;11557;50.884;4.322;2023-04-03T03:16:43;14.02;;;7.85;;
22780;SDS011;11557;50.884;4.322;2023-04-03T03:19:08;11.13;;;8.18;;
22780;SDS011;11557;50.884;4.322;2023-04-03T03:21:35;9.88;;;8.43;;
22780;SDS011;11557;50.884;4.322;2023-04-03T03:24:00;11.75;;;8.32;;
22780;SDS011;11557;50.884;4.322;2023-04-03T03:26:26;10.35;;;8.23;;
22780;SDS011;11557;50.884;4.322;2023-04-03T03:28:52;9.10;;;7.28;;
22780;SDS011;11557;50.884;4.322;2023-04-03T03:31:17;10.98;;;7.65;;
22780;SDS011;11557;50.884;4.322;2023-04-03T03:33:43;9.50;;;7.45;;
22780;SDS011;11557;50.884;4.322;2023-04-03T03:36:09;11.45;;;8.07;;
22780;SDS011;11557;50.884;4.322;2023-04-03T03:38:35;12.95;;;8.82;;
22780;SDS011;11557;50.884;4.322;2023-04-03T03:41:01;11.70;;;8.27;;
22780;SDS011;11557;50.884;4.322;2023-04-03T03:43:27;10.98;;;8.00;;
22780;SDS011;11557;50.884;4.322;2023-04-03T03:45:52;9.70;;;8.63;;
22780;SDS011;11557;50.884;4.322;2023-04-03T03:48:19;9.63;;;7.70;;
22780;SDS011;11557;50.884;4.322;2023-04-03T03:50:46;13.23;;;8.00;;
22780;SDS011;11557;50.884;4.322;2023-04-03T03:53:11;12.75;;;8.50;;
22780;SDS011;11557;50.884;4.322;2023-04-03T03:55:37;14.77;;;9.48;;
22780;SDS011;11557;50.884;4.322;2023-04-03T03:58:03;10.80;;;8.40;;
22780;SDS011;11557;50.884;4.322;2023-04-03T04:00:28;9.38;;;8.13;;
22780;SDS011;11557;50.884;4.322;2023-04-03T04:02:55;11.98;;;8.43;;
22780;SDS011;11557;50.884;4.322;2023-04-03T04:05:21;10.07;;;8.38;;
22780;SDS011;11557;50.884;4.322;2023-04-03T04:07:47;13.23;;;8.75;;
22780;SDS011;11557;50.884;4.322;2023-04-03T04:10:12;10.13;;;8.55;;
22780;SDS011;11557;50.884;4.322;2023-04-03T04:12:38;13.23;;;10.35;;
22780;SDS011;11557;50.884;4.322;2023-04-03T04:15:04;10.45;;;9.30;;
22780;SDS011;11557;50.884;4.322;2023-04-03T04:17:30;12.70;;;9.98;;
22780;SDS011;11557;50.884;4.322;2023-04-03T04:19:56;13.02;;;9.60;;
22780;SDS011;11557;50.884;4.322;2023-04-03T04:22:21;12.57;;;10.07;;
22780;SDS011;11557;50.884;4.322;2023-04-03T04:24:47;14.80;;;9.77;;
22780;SDS011;11557;50.884;4.322;2023-04-03T04:27:13;10.80;;;9.65;;
22780;SDS011;11557;50.884;4.322;2023-04-03T04:29:38;12.50;;;9.93;;
22780;SDS011;11557;50.884;4.322;2023-04-03T04:32:04;11.48;;;9.95;;
22780;SDS011;11557;50.884;4.322;2023-04-03T04:34:29;15.77;;;10.35;;
22780;SDS011;11557;50.884;4.322;2023-04-03T04:36:55;13.98;;;9.68;;
22780;SDS011;11557;50.884;4.322;2023-04-03T04:39:21;11.23;;;8.88;;
22780;SDS011;11557;50.884;4.322;2023-04-03T04:41:47;13.23;;;9.60;;
22780;SDS011;11557;50.884;4.322;2023-04-03T04:44:12;14.35;;;9.68;;
22780;SDS011;11557;50.884;4.322;2023-04-03T04:46:38;11.77;;;9.75;;
22780;SDS011;11557;50.884;4.322;2023-04-03T04:49:03;12.27;;;9.90;;
22780;SDS011;11557;50.884;4.322;2023-04-03T04:51:29;12.07;;;10.70;;
22780;SDS011;11557;50.884;4.322;2023-04-03T04:53:55;14.25;;;10.23;;
22780;SDS011;11557;50.884;4.322;2023-04-03T04:56:20;11.73;;;10.02;;
22780;SDS011;11557;50.884;4.322;2023-04-03T04:58:46;13.48;;;11.05;;
22780;SDS011;11557;50.884;4.322;2023-04-03T05:01:12;14.38;;;9.65;;
22780;SDS011;11557;50.884;4.322;2023-04-03T05:03:38;14.00;;;10.77;;
22780;SDS011;11557;50.884;4.322;2023-04-03T05:06:03;15.20;;;11.50;;
22780;SDS011;11557;50.884;4.322;2023-04-03T05:08:30;16.58;;;11.52;;
22780;SDS011;11557;50.884;4.322;2023-04-03T05:10:56;14.65;;;11.27;;
22780;SDS011;11557;50.884;4.322;2023-04-03T05:13:22;14.38;;;11.43;;
22780;SDS011;11557;50.884;4.322;2023-04-03T05:15:47;18.45;;;11.90;;
22780;SDS011;11557;50.884;4.322;2023-04-03T05:18:13;16.13;;;11.45;;
22780;SDS011;11557;50.884;4.322;2023-04-03T05:20:39;13.40;;;10.52;;
22780;SDS011;11557;50.884;4.322;2023-04-03T05:23:05;14.98;;;12.32;;
22780;SDS011;11557;50.884;4.322;2023-04-03T05:25:30;15.52;;;11.40;;
22780;SDS011;11557;50.884;4.322;2023-04-03T05:27:56;13.27;;;11.52;;
22780;SDS011;11557;50.884;4.322;2023-04-03T05:30:22;13.95;;;12.40;;
22780;SDS011;11557;50.884;4.322;2023-04-03T05:32:48;13.38;;;11.93;;
22780;SDS011;11557;50.884;4.322;2023-04-03T05:35:13;14.63;;;11.85;;
22780;SDS011;11557;50.884;4.322;2023-04-03T05:37:39;14.48;;;12.35;;
22780;SDS011;11557;50.884;4.322;2023-04-03T05:40:05;18.38;;;12.70;;
22780;SDS011;11557;50.884;4.322;2023-04-03T05:42:32;16.20;;;12.65;;
22780;SDS011;11557;50.884;4.322;2023-04-03T05:44:57;14.10;;;12.02;;
22780;SDS011;11557;50.884;4.322;2023-04-03T05:47:23;17.83;;;12.82;;
22780;SDS011;11557;50.884;4.322;2023-04-03T05:49:49;30.35;;;13.70;;
22780;SDS011;11557;50.884;4.322;2023-04-03T05:52:20;15.65;;;12.90;;
22780;SDS011;11557;50.884;4.322;2023-04-03T05:54:54;13.50;;;11.50;;
22780;SDS011;11557;50.884;4.322;2023-04-03T05:57:20;16.55;;;12.38;;
22780;SDS011;11557;50.884;4.322;2023-04-03T05:59:46;21.45;;;13.10;;
22780;SDS011;11557;50.884;4.322;2023-04-03T06:02:13;16.25;;;12.88;;
22780;SDS011;11557;50.884;4.322;2023-04-03T06:04:41;15.27;;;13.68;;
22780;SDS011;11557;50.884;4.322;2023-04-03T06:07:09;19.17;;;12.32;;
22780;SDS011;11557;50.884;4.322;2023-04-03T06:09:37;15.00;;;13.38;;
22780;SDS011;11557;50.884;4.322;2023-04-03T06:12:02;15.57;;;12.50;;
22780;SDS011;11557;50.884;4.322;2023-04-03T06:14:28;21.50;;;12.48;;
22780;SDS011;11557;50.884;4.322;2023-04-03T06:16:53;19.10;;;12.93;;
22780;SDS011;11557;50.884;4.322;2023-04-03T06:19:19;18.90;;;12.02;;
22780;SDS011;11557;50.884;4.322;2023-04-03T06:21:45;15.57;;;12.70;;
22780;SDS011;11557;50.884;4.322;2023-04-03T06:24:12;14.52;;;12.50;;
22780;SDS011;11557;50.884;4.322;2023-04-03T06:26:40;16.80;;;12.65;;
22780;SDS011;11557;50.884;4.322;2023-04-03T06:29:07;17.23;;;13.18;;
22780;SDS011;11557;50.884;4.322;2023-04-03T06:31:32;15.52;;;12.95;;
22780;SDS011;11557;50.884;4.322;2023-04-03T06:33:58;15.40;;;12.55;;
22780;SDS011;11557;50.884;4.322;2023-04-03T06:36:24;13.57;;;11.45;;
22780;SDS011;11557;50.884;4.322;2023-04-03T06:38:50;17.00;;;12.80;;
22780;SDS011;11557;50.884;4.322;2023-04-03T06:41:16;19.08;;;12.27;;
22780;SDS011;11557;50.884;4.322;2023-04-03T06:43:42;17.20;;;12.02;;
22780;SDS011;11557;50.884;4.322;2023-04-03T06:46:16;15.38;;;11.93;;
22780;SDS011;11557;50.884;4.322;2023-04-03T06:48:43;18.48;;;11.98;;
22780;SDS011;11557;50.884;4.322;2023-04-03T06:51:20;14.63;;;11.52;;
22780;SDS011;11557;50.884;4.322;2023-04-03T06:53:52;14.70;;;11.93;;
22780;SDS011;11557;50.884;4.322;2023-04-03T06:56:19;16.38;;;11.75;;
22780;SDS011;11557;50.884;4.322;2023-04-03T06:58:45;15.70;;;11.63;;
22780;SDS011;11557;50.884;4.322;2023-04-03T07:01:12;14.85;;;11.98;;
22780;SDS011;11557;50.884;4.322;2023-04-03T07:03:39;17.60;;;11.82;;
22780;SDS011;11557;50.884;4.322;2023-04-03T07:06:06;20.42;;;12.73;;
22780;SDS011;11557;50.884;4.322;2023-04-03T07:08:37;15.40;;;12.20;;
22780;SDS011;11557;50.884;4.322;2023-04-03T07:11:03;15.65;;;12.43;;
22780;SDS011;11557;50.884;4.322;2023-04-03T07:13:29;16.00;;;12.50;;
22780;SDS011;11557;50.884;4.322;2023-04-03T07:15:55;17.02;;;11.65;;
22780;SDS011;11557;50.884;4.322;2023-04-03T07:18:21;15.27;;;11.93;;
22780;SDS011;11557;50.884;4.322;2023-04-03T07:20:47;15.43;;;11.27;;
22780;SDS011;11557;50.884;4.322;2023-04-03T07:23:12;18.10;;;11.85;;
22780;SDS011;11557;50.884;4.322;2023-04-03T07:25:45;14.57;;;11.50;;
22780;SDS011;11557;50.884;4.322;2023-04-03T07:28:13;15.23;;;11.77;;
22780;SDS011;11557;50.884;4.322;2023-04-03T07:30:46;18.90;;;11.63;;
22780;SDS011;11557;50.884;4.322;2023-04-03T07:33:14;17.70;;;12.68;;
22780;SDS011;11557;50.884;4.322;2023-04-03T07:35:41;15.55;;;12.05;;
22780;SDS011;11557;50.884;4.322;2023-04-03T07:38:07;14.40;;;10.73;;
22780;SDS011;11557;50.884;4.322;2023-04-03T07:40:33;16.30;;;11.93;;
22780;SDS011;11557;50.884;4.322;2023-04-03T07:43:00;13.88;;;11.02;;
22780;SDS011;11557;50.884;4.322;2023-04-03T07:45:26;14.30;;;10.35;;
22780;SDS011;11557;50.884;4.322;2023-04-03T07:47:52;18.38;;;10.95;;
22780;SDS011;11557;50.884;4.322;2023-04-03T07:50:17;14.73;;;11.05;;
22780;SDS011;11557;50.884;4.322;2023-04-03T07:52:44;13.77;;;11.30;;
22780;SDS011;11557;50.884;4.322;2023-04-03T07:55:10;17.98;;;11.82;;
22780;SDS011;11557;50.884;4.322;2023-04-03T07:57:36;15.30;;;10.90;;
22780;SDS011;11557;50.884;4.322;2023-04-03T08:00:03;14.88;;;10.60;;
22780;SDS011;11557;50.884;4.322;2023-04-03T08:02:30;14.82;;;10.45;;
22780;SDS011;11557;50.884;4.322;2023-04-03T08:04:57;12.82;;;9.43;;
22780;SDS011;11557;50.884;4.322;2023-04-03T08:07:23;14.70;;;10.93;;
22780;SDS011;11557;50.884;4.322;2023-04-03T08:09:49;16.77;;;10.02;;
22780;SDS011;11557;50.884;4.322;2023-04-03T08:12:15;13.68;;;9.27;;
22780;SDS011;11557;50.884;4.322;2023-04-03T08:14:41;20.73;;;10.45;;
22780;SDS011;11557;50.884;4.322;2023-04-03T08:17:07;17.35;;;10.00;;
22780;SDS011;11557;50.884;4.322;2023-04-03T08:19:36;12.32;;;9.65;;
22780;SDS011;11557;50.884;4.322;2023-04-03T08:22:03;12.70;;;9.55;;
22780;SDS011;11557;50.884;4.322;2023-04-03T08:24:30;13.98;;;9.07;;
22780;SDS011;11557;50.884;4.322;2023-04-03T08:26:56;10.82;;;8.80;;
22780;SDS011;11557;50.884;4.322;2023-04-03T08:29:22;13.02;;;8.23;;
22780;SDS011;11557;50.884;4.322;2023-04-03T08:31:48;12.88;;;7.78;;
22780;SDS011;11557;50.884;4.322;2023-04-03T08:34:15;11.25;;;7.43;;
22780;SDS011;11557;50.884;4.322;2023-04-03T08:36:41;14.25;;;7.50;;
22780;SDS011;11557;50.884;4.322;2023-04-03T08:39:07;10.20;;;7.40;;
22780;SDS011;11557;50.884;4.322;2023-04-03T08:46:39;17.10;;;7.05;;
22780;SDS011;11557;50.884;4.322;2023-04-03T08:49:17;11.70;;;6.68;;
22780;SDS011;11557;50.884;4.322;2023-04-03T08:51:52;8.52;;;6.30;;
22780;SDS011;11557;50.884;4.322;2023-04-03T08:54:45;8.90;;;6.28;;
22780;SDS011;11557;50.884;4.322;2023-04-03T08:57:39;10.18;;;7.60;;
22780;SDS011;11557;50.884;4.322;2023-04-03T09:02:43;7.40;;;4.72;;
22780;SDS011;11557;50.884;4.322;2023-04-03T09:05:13;8.60;;;4.10;;
22780;SDS011;11557;50.884;4.322;2023-04-03T09:07:47;6.53;;;3.65;;
22780;SDS011;11557;50.884;4.322;2023-04-03T09:10:24;9.70;;;5.00;;
22780;SDS011;11557;50.884;4.322;2023-04-03T09:12:56;7.88;;;4.10;;
22780;SDS011;11557;50.884;4.322;2023-04-03T09:15:28;7.45;;;3.80;;
22780;SDS011;11557;50.884;4.322;2023-04-03T09:25:46;5.45;;;2.97;;
22780;SDS011;11557;50.884;4.322;2023-04-03T09:28:14;6.65;;;3.22;;
22780;SDS011;11557;50.884;4.322;2023-04-03T09:30:40;7.65;;;2.83;;
22780;SDS011;11557;50.884;4.322;2023-04-03T09:33:06;6.35;;;2.63;;
22780;SDS011;11557;50.884;4.322;2023-04-03T09:35:33;4.72;;;2.88;;
22780;SDS011;11557;50.884;4.322;2023-04-03T09:38:02;4.38;;;2.55;;
22780;SDS011;11557;50.884;4.322;2023-04-03T09:40:45;5.78;;;2.63;;
22780;SDS011;11557;50.884;4.322;2023-04-03T09:43:23;6.60;;;2.63;;
22780;SDS011;11557;50.884;4.322;2023-04-03T09:46:15;4.72;;;2.28;;
22780;SDS011;11557;50.884;4.322;2023-04-03T09:48:56;5.28;;;2.50;;
22780;SDS011;11557;50.884;4.322;2023-04-03T09:51:27;5.10;;;2.50;;
22780;SDS011;11557;50.884;4.322;2023-04-03T09:53:54;3.72;;;2.53;;
22780;SDS011;11557;50.884;4.322;2023-04-03T09:56:28;8.38;;;2.88;;
22780;SDS011;11557;50.884;4.322;2023-04-03T10:01:42;5.22;;;2.50;;
22780;SDS011;11557;50.884;4.322;2023-04-03T10:04:22;4.95;;;2.25;;
22780;SDS011;11557;50.884;4.322;2023-04-03T10:06:50;5.95;;;2.15;;
22780;SDS011;11557;50.884;4.322;2023-04-03T10:09:21;3.78;;;2.35;;
22780;SDS011;11557;50.884;4.322;2023-04-03T10:12:07;7.47;;;2.17;;
22780;SDS011;11557;50.884;4.322;2023-04-03T10:14:53;7.22;;;2.30;;
22780;SDS011;11557;50.884;4.322;2023-04-03T10:20:26;6.55;;;2.35;;
22780;SDS011;11557;50.884;4.322;2023-04-03T10:23:12;5.45;;;2.40;;
22780;SDS011;11557;50.884;4.322;2023-04-03T10:36:43;3.90;;;1.98;;
22780;SDS011;11557;50.884;4.322;2023-04-03T10:39:45;5.97;;;2.25;;
22780;SDS011;11557;50.884;4.322;2023-04-03T10:52:47;4.85;;;2.00;;
22780;SDS011;11557;50.884;4.322;2023-04-03T10:55:24;5.93;;;2.42;;
22780;SDS011;11557;50.884;4.322;2023-04-03T10:58:03;5.03;;;2.42;;
22780;SDS011;11557;50.884;4.322;2023-04-03T11:03:06;6.15;;;2.17;;
22780;SDS011;11557;50.884;4.322;2023-04-03T11:05:45;3.63;;;2.40;;
22780;SDS011;11557;50.884;4.322;2023-04-03T11:10:49;3.33;;;2.28;;
22780;SDS011;11557;50.884;4.322;2023-04-03T11:14:20;4.57;;;1.80;;
22780;SDS011;11557;50.884;4.322;2023-04-03T11:16:41;5.03;;;2.13;;
22780;SDS011;11557;50.884;4.322;2023-04-03T11:19:18;4.18;;;2.25;;
22780;SDS011;11557;50.884;4.322;2023-04-03T11:24:46;5.32;;;2.17;;
22780;SDS011;11557;50.884;4.322;2023-04-03T11:27:21;4.07;;;1.98;;
22780;SDS011;11557;50.884;4.322;2023-04-03T11:29:49;5.47;;;2.08;;
22780;SDS011;11557;50.884;4.322;2023-04-03T11:32:33;6.00;;;2.00;;
22780;SDS011;11557;50.884;4.322;2023-04-03T11:35:21;4.60;;;1.70;;
22780;SDS011;11557;50.884;4.322;2023-04-03T11:37:50;4.75;;;2.33;;
22780;SDS011;11557;50.884;4.322;2023-04-03T11:50:58;5.53;;;2.15;;
22780;SDS011;11557;50.884;4.322;2023-04-03T11:53:30;3.85;;;1.80;;
22780;SDS011;11557;50.884;4.322;2023-04-03T11:56:01;4.53;;;1.90;;
22780;SDS011;11557;50.884;4.322;2023-04-03T11:58:31;5.75;;;1.90;;
22780;SDS011;11557;50.884;4.322;2023-04-03T12:03:32;6.60;;;1.90;;
22780;SDS011;11557;50.884;4.322;2023-04-03T12:16:05;4.85;;;2.33;;
22780;SDS011;11557;50.884;4.322;2023-04-03T12:21:16;7.22;;;1.92;;
22780;SDS011;11557;50.884;4.322;2023-04-03T12:23:56;6.40;;;2.13;;
22780;SDS011;11557;50.884;4.322;2023-04-03T12:26:41;5.85;;;2.15;;
22780;SDS011;11557;50.884;4.322;2023-04-03T12:29:27;5.22;;;2.15;;
22780;SDS011;11557;50.884;4.322;2023-04-03T12:45:41;5.97;;;1.92;;
22780;SDS011;11557;50.884;4.322;2023-04-03T12:48:18;4.55;;;2.00;;
22780;SDS011;11557;50.884;4.322;2023-04-03T12:50:49;4.97;;;1.73;;
22780;SDS011;11557;50.884;4.322;2023-04-03T12:56:20;3.58;;;1.70;;
22780;SDS011;11557;50.884;4.322;2023-04-03T12:58:53;3.20;;;2.00;;
22780;SDS011;11557;50.884;4.322;2023-04-03T13:01:23;5.07;;;1.73;;
22780;SDS011;11557;50.884;4.322;2023-04-03T13:03:55;4.65;;;1.85;;
22780;SDS011;11557;50.884;4.322;2023-04-03T13:06:23;3.80;;;1.52;;
22780;SDS011;11557;50.884;4.322;2023-04-03T13:08:58;4.22;;;1.77;;
22780;SDS011;11557;50.884;4.322;2023-04-03T13:11:26;5.13;;;1.55;;
22780;SDS011;11557;50.884;4.322;2023-04-03T13:14:30;3.50;;;1.50;;
22780;SDS011;11557;50.884;4.322;2023-04-03T13:17:03;3.92;;;1.60;;
22780;SDS011;11557;50.884;4.322;2023-04-03T13:19:40;5.18;;;1.50;;
22780;SDS011;11557;50.884;4.322;2023-04-03T13:22:11;4.90;;;1.80;;
22780;SDS011;11557;50.884;4.322;2023-04-03T13:24:58;3.83;;;1.98;;
22780;SDS011;11557;50.884;4.322;2023-04-03T13:27:26;2.38;;;1.45;;
22780;SDS011;11557;50.884;4.322;2023-04-03T13:29:56;3.38;;;1.63;;
22780;SDS011;11557;50.884;4.322;2023-04-03T13:32:24;3.67;;;1.52;;
22780;SDS011;11557;50.884;4.322;2023-04-03T13:34:53;3.42;;;1.70;;
22780;SDS011;11557;50.884;4.322;2023-04-03T13:37:36;5.30;;;1.50;;
22780;SDS011;11557;50.884;4.322;2023-04-03T13:40:04;6.78;;;1.88;;
22780;SDS011;11557;50.884;4.322;2023-04-03T13:42:37;2.72;;;1.50;;
22780;SDS011;11557;50.884;4.322;2023-04-03T13:45:23;4.82;;;1.52;;
22780;SDS011;11557;50.884;4.322;2023-04-03T13:47:53;4.00;;;1.75;;
22780;SDS011;11557;50.884;4.322;2023-04-03T13:50:32;5.60;;;1.50;;
22780;SDS011;11557;50.884;4.322;2023-04-03T13:53:02;4.60;;;1.40;;
22780;SDS011;11557;50.884;4.322;2023-04-03T13:55:36;3.13;;;1.40;;
22780;SDS011;11557;50.884;4.322;2023-04-03T13:58:20;4.78;;;1.67;;
22780;SDS011;11557;50.884;4.322;2023-04-03T14:03:24;2.72;;;1.30;;
22780;SDS011;11557;50.884;4.322;2023-04-03T14:05:58;6.93;;;1.98;;
22780;SDS011;11557;50.884;4.322;2023-04-03T14:08:25;4.18;;;1.50;;
22780;SDS011;11557;50.884;4.322;2023-04-03T14:10:52;3.28;;;1.60;;
22780;SDS011;11557;50.884;4.322;2023-04-03T14:13:18;5.30;;;1.83;;
22780;SDS011;11557;50.884;4.322;2023-04-03T14:15:46;3.55;;;1.70;;
22780;SDS011;11557;50.884;4.322;2023-04-03T14:18:14;6.70;;;1.90;;
22780;SDS011;11557;50.884;4.322;2023-04-03T14:20:42;4.18;;;1.75;;
22780;SDS011;11557;50.884;4.322;2023-04-03T14:23:08;5.40;;;1.73;;
22780;SDS011;11557;50.884;4.322;2023-04-03T14:25:35;4.85;;;1.75;;
22780;SDS011;11557;50.884;4.322;2023-04-03T14:28:01;7.03;;;1.92;;
22780;SDS011;11557;50.884;4.322;2023-04-03T14:30:37;4.30;;;1.77;;
22780;SDS011;11557;50.884;4.322;2023-04-03T14:33:03;3.22;;;1.80;;
22780;SDS011;11557;50.884;4.322;2023-04-03T14:35:28;3.85;;;1.60;;
22780;SDS011;11557;50.884;4.322;2023-04-03T14:37:54;5.38;;;1.80;;
22780;SDS011;11557;50.884;4.322;2023-04-03T14:40:22;2.95;;;1.55;;
22780;SDS011;11557;50.884;4.322;2023-04-03T14:42:49;6.07;;;1.90;;
22780;SDS011;11557;50.884;4.322;2023-04-03T14:45:16;3.60;;;1.80;;
22780;SDS011;11557;50.884;4.322;2023-04-03T14:47:47;4.88;;;1.73;;
22780;SDS011;11557;50.884;4.322;2023-04-03T14:50:16;3.10;;;1.45;;
22780;SDS011;11557;50.884;4.322;2023-04-03T14:52:46;6.75;;;2.05;;
22780;SDS011;11557;50.884;4.322;2023-04-03T14:55:14;4.32;;;1.83;;
22780;SDS011;11557;50.884;4.322;2023-04-03T14:57:41;4.53;;;1.70;;
22780;SDS011;11557;50.884;4.322;2023-04-03T15:00:13;5.70;;;1.70;;
22780;SDS011;11557;50.884;4.322;2023-04-03T15:05:08;5.13;;;1.45;;
22780;SDS011;11557;50.884;4.322;2023-04-03T15:07:36;3.53;;;1.67;;
22780;SDS011;11557;50.884;4.322;2023-04-03T15:12:42;4.22;;;1.70;;
22780;SDS011;11557;50.884;4.322;2023-04-03T15:15:08;3.70;;;1.52;;
22780;SDS011;11557;50.884;4.322;2023-04-03T15:17:34;3.78;;;1.67;;
22780;SDS011;11557;50.884;4.322;2023-04-03T15:20:02;6.07;;;1.63;;
22780;SDS011;11557;50.884;4.322;2023-04-03T15:22:28;3.60;;;1.58;;
22780;SDS011;11557;50.884;4.322;2023-04-03T15:24:54;3.50;;;1.35;;
22780;SDS011;11557;50.884;4.322;2023-04-03T15:27:20;8.07;;;4.68;;
22780;SDS011;11557;50.884;4.322;2023-04-03T15:29:45;3.10;;;1.60;;
22780;SDS011;11557;50.884;4.322;2023-04-03T15:32:11;2.70;;;1.40;;
22780;SDS011;11557;50.884;4.322;2023-04-03T15:34:38;6.25;;;1.67;;
22780;SDS011;11557;50.884;4.322;2023-04-03T15:37:04;3.30;;;1.40;;
22780;SDS011;11557;50.884;4.322;2023-04-03T15:39:30;4.63;;;1.40;;
22780;SDS011;11557;50.884;4.322;2023-04-03T15:41:56;4.85;;;1.73;;
22780;SDS011;11557;50.884;4.322;2023-04-03T15:44:30;28.40;;;2.20;;
22780;SDS011;11557;50.884;4.322;2023-04-03T15:46:57;6.47;;;1.60;;
22780;SDS011;11557;50.884;4.322;2023-04-03T15:49:23;2.97;;;1.50;;
22780;SDS011;11557;50.884;4.322;2023-04-03T15:51:49;7.03;;;1.77;;
22780;SDS011;11557;50.884;4.322;2023-04-03T15:54:15;10.48;;;2.05;;
22780;SDS011;11557;50.884;4.322;2023-04-03T15:56:41;8.43;;;1.98;;
22780;SDS011;11557;50.884;4.322;2023-04-03T15:59:07;7.22;;;1.98;;
22780;SDS011;11557;50.884;4.322;2023-04-03T16:01:32;15.65;;;2.13;;
22780;SDS011;11557;50.884;4.322;2023-04-03T16:03:58;38.78;;;4.22;;
22780;SDS011;11557;50.884;4.322;2023-04-03T16:06:25;3.10;;;1.40;;
22780;SDS011;11557;50.884;4.322;2023-04-03T16:08:54;9.95;;;1.55;;
22780;SDS011;11557;50.884;4.322;2023-04-03T16:11:22;5.18;;;1.95;;
22780;SDS011;11557;50.884;4.322;2023-04-03T16:13:51;5.15;;;1.48;;
22780;SDS011;11557;50.884;4.322;2023-04-03T16:16:18;10.93;;;2.03;;
22780;SDS011;11557;50.884;4.322;2023-04-03T16:18:43;4.45;;;1.75;;
22780;SDS011;11557;50.884;4.322;2023-04-03T16:21:09;4.53;;;1.80;;
22780;SDS011;11557;50.884;4.322;2023-04-03T16:23:35;11.77;;;2.10;;
22780;SDS011;11557;50.884;4.322;2023-04-03T16:26:01;8.55;;;2.22;;
22780;SDS011;11557;50.884;4.322;2023-04-03T16:28:26;5.68;;;1.55;;
22780;SDS011;11557;50.884;4.322;2023-04-03T16:30:52;3.80;;;2.30;;